Apj Shirin — 3EVS6 — position and weather

sailwx.info

Track history (hours):
 
Tides and Currents Weather Stations Pressure Air Temp Water Temp Dewpoint Dewpoint Depression Visibility Wind Speed Wind Dir Waves Ship Positions

Apj Shirin

Last reported at 2015-Jul-28 21:31 UTC. Time now 2015-Jul-28 21:49 UTC.
Position N 40°15' E 122°05'.

Length 189 m; draft 7.7 m.

Type: Cargo ship. MMSI: 373223000.

Date/timePositionNaut miles runAvg speedWind from/ knotsBaromVisibWave heightAir tempDewpointWater temp
2015-Jul-28 21:31N 40°15' E 122°05'0 0.0
2015-Jul-28 20:19N 40°15' E 122°05'0 0.0
2015-Jul-28 19:31N 40°15' E 122°05'0 0.0
2015-Jul-28 18:31N 40°15' E 122°05'0 0.0
2015-Jul-28 17:31N 40°15' E 122°05'0 0.0
2015-Jul-28 16:31N 40°15' E 122°05'0 0.0
2015-Jul-28 15:31N 40°15' E 122°05'0 0.0
2015-Jul-28 14:31N 40°15' E 122°05'0 0.0
2015-Jul-28 13:31N 40°15' E 122°05'0 0.0
2015-Jul-28 12:31N 40°15' E 122°05'0 0.0
2015-Jul-28 11:31N 40°15' E 122°05'0 0.0
2015-Jul-28 10:31N 40°15' E 122°05'0 0.0
2015-Jul-28 09:31N 40°15' E 122°05'0 0.0
2015-Jul-28 08:25N 40°15' E 122°05'0 0.0
2015-Jul-28 07:31N 40°15' E 122°05'0 0.0
2015-Jul-28 06:31N 40°15' E 122°05'0 0.0
2015-Jul-28 05:31N 40°15' E 122°05'0 0.0
2015-Jul-28 04:25N 40°15' E 122°05'0 0.0
2015-Jul-28 03:31N 40°15' E 122°05'0 0.0
2015-Jul-28 02:31N 40°15' E 122°05'0 0.0
2015-Jul-28 01:31N 40°15' E 122°05'0 0.0
2015-Jul-28 00:31N 40°15' E 122°05'0 0.0
2015-Jul-27 23:29N 40°15' E 122°05'2 1.8
2015-Jul-27 22:33N 40°16' E 122°05'9 8.7
2015-Jul-27 21:28N 40°19' E 121°54'1 0.1
2015-Jul-27 13:19N 40°20' E 121°53'0 0.0
2015-Jul-27 12:13N 40°20' E 121°53'0 0.1
2015-Jul-27 10:25N 40°20' E 121°53'0 0.0
2015-Jul-27 09:31N 40°20' E 121°53'0 0.1
2015-Jul-27 08:31N 40°20' E 121°53'0 0.0
2015-Jul-26 19:31N 40°20' E 121°53'0 0.0
2015-Jul-26 10:25N 40°20' E 121°53'0 0.1
2015-Jul-26 09:19N 40°20' E 121°53'0 0.0
2015-Jul-26 07:07N 40°20' E 121°53'0 0.0
2015-Jul-26 06:31N 40°20' E 121°53'0 0.0
2015-Jul-25 08:31N 40°20' E 121°53'0 0.0
2015-Jul-24 19:07N 40°20' E 121°53'0 0.0
2015-Jul-24 18:19N 40°20' E 121°53'0 0.0
2015-Jul-24 07:25N 40°20' E 121°53'0 0.1
2015-Jul-24 06:30N 40°20' E 121°53'  
2015-Jul-21 17:30N 31°05' E 122°26'1010.3
2015-Jul-21 16:33N 31°08' E 122°15'1211.9
2015-Jul-21 15:33N 31°14' E 122°03'1413.9
2015-Jul-21 14:33N 31°18' E 121°47'1212.3
2015-Jul-21 13:33N 31°23' E 121°35'9 9.3
2015-Jul-21 12:33N 31°29' E 121°26'9 9.5
2015-Jul-21 11:33N 31°35' E 121°18'10 9.7
2015-Jul-21 10:34N 31°41' E 121°09'0 0.1
2015-Jul-21 09:31N 31°41' E 121°09'0 0.0
2015-Jul-21 08:28N 31°41' E 121°09'0 0.0
2015-Jul-21 07:31N 31°41' E 121°09'0 0.0
2015-Jul-21 06:31N 31°41' E 121°09'0 0.0
2015-Jul-21 05:31N 31°41' E 121°09'0 0.0
2015-Jul-21 04:28N 31°41' E 121°09'0 0.0
2015-Jul-21 03:31N 31°41' E 121°09'0 0.0
2015-Jul-21 02:28N 31°41' E 121°09'0 0.0
2015-Jul-21 01:31N 31°41' E 121°09'0 0.0
2015-Jul-21 00:31N 31°41' E 121°09'0 0.0
2015-Jul-20 23:31N 31°41' E 121°09'0 0.0
2015-Jul-20 22:31N 31°41' E 121°09'0 0.0
2015-Jul-20 21:31N 31°41' E 121°09'0 0.0
2015-Jul-20 20:31N 31°41' E 121°09'0 0.0
2015-Jul-20 19:28N 31°41' E 121°09'0 0.0
2015-Jul-20 18:31N 31°41' E 121°09'0 0.0
2015-Jul-20 17:28N 31°41' E 121°09'0 0.0
2015-Jul-20 16:31N 31°41' E 121°09'0 0.0
2015-Jul-20 15:31N 31°41' E 121°09'0 0.0
2015-Jul-20 14:19N 31°41' E 121°09'0 0.0
2015-Jul-20 13:28N 31°41' E 121°09'0 0.0
2015-Jul-20 12:31N 31°41' E 121°09'0 0.0
2015-Jul-20 11:31N 31°41' E 121°09'0 0.0
2015-Jul-20 10:31N 31°41' E 121°09'0 0.0
2015-Jul-20 09:31N 31°41' E 121°09'0 0.0
2015-Jul-20 08:22N 31°41' E 121°09'0 0.0
2015-Jul-20 07:28N 31°41' E 121°09'0 0.0
2015-Jul-20 06:22N 31°41' E 121°09'0 0.0
2015-Jul-20 05:31N 31°41' E 121°09'0 0.0
2015-Jul-20 04:31N 31°41' E 121°09'0 0.0
2015-Jul-20 03:31N 31°41' E 121°09'0 0.0
2015-Jul-20 02:22N 31°41' E 121°09'0 0.0
2015-Jul-20 01:31N 31°41' E 121°09'0 0.0
2015-Jul-20 00:31N 31°41' E 121°09'0 0.0
2015-Jul-19 23:28N 31°41' E 121°09'0 0.0
2015-Jul-19 22:31N 31°41' E 121°09'0 0.0
2015-Jul-19 21:31N 31°41' E 121°09'0 0.0
2015-Jul-19 20:31N 31°41' E 121°09'0 0.0
2015-Jul-19 19:22N 31°41' E 121°09'0 0.0
2015-Jul-19 18:31N 31°41' E 121°09'0 0.0
2015-Jul-19 17:28N 31°41' E 121°09'0 0.0
2015-Jul-19 16:31N 31°41' E 121°09'0 0.0
2015-Jul-19 15:31N 31°41' E 121°09'0 0.0
2015-Jul-19 14:28N 31°41' E 121°09'0 0.0
2015-Jul-19 13:28N 31°41' E 121°09'2 1.7
2015-Jul-19 12:33N 31°41' E 121°11'5 4.6
2015-Jul-19 11:33N 31°38' E 121°15'7 7.4
2015-Jul-19 10:33N 31°33' E 121°21'1010.0
2015-Jul-19 09:33N 31°26' E 121°30'8 7.9
2015-Jul-19 08:33N 31°22' E 121°38'1010.2
2015-Jul-19 07:33N 31°17' E 121°48'1110.6
2015-Jul-19 06:33N 31°15' E 122°00'1110.9
2015-Jul-19 05:33N 31°10' E 122°12'  
Track history (hours):
 
Tides and Currents Weather Stations Pressure Air Temp Water Temp Dewpoint Dewpoint Depression Visibility Wind Speed Wind Dir Waves Ship Positions

Apj Shirin

Last reported at 2015-Jul-28 21:31 UTC. Time now 2015-Jul-28 21:49 UTC.
Position N 40°15' E 122°05'.

Length 189 m; draft 7.7 m.

Type: Cargo ship. MMSI: 373223000.

Date/timePositionNaut miles runAvg speedWind from/ knotsBaromVisibWave heightAir tempDewpointWater temp
2015-Jul-28 21:31N 40°15' E 122°05'0 0.0
2015-Jul-28 20:19N 40°15' E 122°05'0 0.0
2015-Jul-28 19:31N 40°15' E 122°05'0 0.0
2015-Jul-28 18:31N 40°15' E 122°05'0 0.0
2015-Jul-28 17:31N 40°15' E 122°05'0 0.0
2015-Jul-28 16:31N 40°15' E 122°05'0 0.0
2015-Jul-28 15:31N 40°15' E 122°05'0 0.0
2015-Jul-28 14:31N 40°15' E 122°05'0 0.0
2015-Jul-28 13:31N 40°15' E 122°05'0 0.0
2015-Jul-28 12:31N 40°15' E 122°05'0 0.0
2015-Jul-28 11:31N 40°15' E 122°05'0 0.0
2015-Jul-28 10:31N 40°15' E 122°05'0 0.0
2015-Jul-28 09:31N 40°15' E 122°05'0 0.0
2015-Jul-28 08:25N 40°15' E 122°05'0 0.0
2015-Jul-28 07:31N 40°15' E 122°05'0 0.0
2015-Jul-28 06:31N 40°15' E 122°05'0 0.0
2015-Jul-28 05:31N 40°15' E 122°05'0 0.0
2015-Jul-28 04:25N 40°15' E 122°05'0 0.0
2015-Jul-28 03:31N 40°15' E 122°05'0 0.0
2015-Jul-28 02:31N 40°15' E 122°05'0 0.0
2015-Jul-28 01:31N 40°15' E 122°05'0 0.0
2015-Jul-28 00:31N 40°15' E 122°05'0 0.0
2015-Jul-27 23:29N 40°15' E 122°05'2 1.8
2015-Jul-27 22:33N 40°16' E 122°05'9 8.7
2015-Jul-27 21:28N 40°19' E 121°54'1 0.1
2015-Jul-27 13:19N 40°20' E 121°53'0 0.0
2015-Jul-27 12:13N 40°20' E 121°53'0 0.1
2015-Jul-27 10:25N 40°20' E 121°53'0 0.0
2015-Jul-27 09:31N 40°20' E 121°53'0 0.1
2015-Jul-27 08:31N 40°20' E 121°53'0 0.0
2015-Jul-26 19:31N 40°20' E 121°53'0 0.0
2015-Jul-26 10:25N 40°20' E 121°53'0 0.1
2015-Jul-26 09:19N 40°20' E 121°53'0 0.0
2015-Jul-26 07:07N 40°20' E 121°53'0 0.0
2015-Jul-26 06:31N 40°20' E 121°53'0 0.0
2015-Jul-25 08:31N 40°20' E 121°53'0 0.0
2015-Jul-24 19:07N 40°20' E 121°53'0 0.0
2015-Jul-24 18:19N 40°20' E 121°53'0 0.0
2015-Jul-24 07:25N 40°20' E 121°53'0 0.1
2015-Jul-24 06:30N 40°20' E 121°53'  
2015-Jul-21 17:30N 31°05' E 122°26'1010.3
2015-Jul-21 16:33N 31°08' E 122°15'1211.9
2015-Jul-21 15:33N 31°14' E 122°03'1413.9
2015-Jul-21 14:33N 31°18' E 121°47'1212.3
2015-Jul-21 13:33N 31°23' E 121°35'9 9.3
2015-Jul-21 12:33N 31°29' E 121°26'9 9.5
2015-Jul-21 11:33N 31°35' E 121°18'10 9.7
2015-Jul-21 10:34N 31°41' E 121°09'0 0.1
2015-Jul-21 09:31N 31°41' E 121°09'0 0.0
2015-Jul-21 08:28N 31°41' E 121°09'0 0.0
2015-Jul-21 07:31N 31°41' E 121°09'0 0.0
2015-Jul-21 06:31N 31°41' E 121°09'0 0.0
2015-Jul-21 05:31N 31°41' E 121°09'0 0.0
2015-Jul-21 04:28N 31°41' E 121°09'0 0.0
2015-Jul-21 03:31N 31°41' E 121°09'0 0.0
2015-Jul-21 02:28N 31°41' E 121°09'0 0.0
2015-Jul-21 01:31N 31°41' E 121°09'0 0.0
2015-Jul-21 00:31N 31°41' E 121°09'0 0.0
2015-Jul-20 23:31N 31°41' E 121°09'0 0.0
2015-Jul-20 22:31N 31°41' E 121°09'0 0.0
2015-Jul-20 21:31N 31°41' E 121°09'0 0.0
2015-Jul-20 20:31N 31°41' E 121°09'0 0.0
2015-Jul-20 19:28N 31°41' E 121°09'0 0.0
2015-Jul-20 18:31N 31°41' E 121°09'0 0.0
2015-Jul-20 17:28N 31°41' E 121°09'0 0.0
2015-Jul-20 16:31N 31°41' E 121°09'0 0.0
2015-Jul-20 15:31N 31°41' E 121°09'0 0.0
2015-Jul-20 14:19N 31°41' E 121°09'0 0.0
2015-Jul-20 13:28N 31°41' E 121°09'0 0.0
2015-Jul-20 12:31N 31°41' E 121°09'0 0.0
2015-Jul-20 11:31N 31°41' E 121°09'0 0.0
2015-Jul-20 10:31N 31°41' E 121°09'0 0.0
2015-Jul-20 09:31N 31°41' E 121°09'0 0.0
2015-Jul-20 08:22N 31°41' E 121°09'0 0.0
2015-Jul-20 07:28N 31°41' E 121°09'0 0.0
2015-Jul-20 06:22N 31°41' E 121°09'0 0.0
2015-Jul-20 05:31N 31°41' E 121°09'0 0.0
2015-Jul-20 04:31N 31°41' E 121°09'0 0.0
2015-Jul-20 03:31N 31°41' E 121°09'0 0.0
2015-Jul-20 02:22N 31°41' E 121°09'0 0.0
2015-Jul-20 01:31N 31°41' E 121°09'0 0.0
2015-Jul-20 00:31N 31°41' E 121°09'0 0.0
2015-Jul-19 23:28N 31°41' E 121°09'0 0.0
2015-Jul-19 22:31N 31°41' E 121°09'0 0.0
2015-Jul-19 21:31N 31°41' E 121°09'0 0.0
2015-Jul-19 20:31N 31°41' E 121°09'0 0.0
2015-Jul-19 19:22N 31°41' E 121°09'0 0.0
2015-Jul-19 18:31N 31°41' E 121°09'0 0.0
2015-Jul-19 17:28N 31°41' E 121°09'0 0.0
2015-Jul-19 16:31N 31°41' E 121°09'0 0.0
2015-Jul-19 15:31N 31°41' E 121°09'0 0.0
2015-Jul-19 14:28N 31°41' E 121°09'0 0.0
2015-Jul-19 13:28N 31°41' E 121°09'2 1.7
2015-Jul-19 12:33N 31°41' E 121°11'5 4.6
2015-Jul-19 11:33N 31°38' E 121°15'7 7.4
2015-Jul-19 10:33N 31°33' E 121°21'1010.0
2015-Jul-19 09:33N 31°26' E 121°30'8 7.9
2015-Jul-19 08:33N 31°22' E 121°38'1010.2
2015-Jul-19 07:33N 31°17' E 121°48'1110.6
2015-Jul-19 06:33N 31°15' E 122°00'1110.9
2015-Jul-19 05:33N 31°10' E 122°12'  

Dump ship's entire track history